createdAt,value
2023-04-20T00:00:17.774Z,5.97
2023-04-20T00:02:46.426Z,5.78
2023-04-20T00:05:14.993Z,6.20
2023-04-20T00:07:45.098Z,5.83
2023-04-20T00:10:13.584Z,5.15
2023-04-20T00:12:43.660Z,6.05
2023-04-20T00:15:12.969Z,5.57
2023-04-20T00:17:41.883Z,5.95
2023-04-20T00:20:13.060Z,5.40
2023-04-20T00:22:41.537Z,4.97
2023-04-20T00:25:11.856Z,6.00
2023-04-20T00:27:40.336Z,5.03
2023-04-20T00:30:11.246Z,5.05
2023-04-20T00:32:39.766Z,5.07
2023-04-20T00:35:09.222Z,4.65
2023-04-20T00:37:37.693Z,5.28
2023-04-20T00:40:08.385Z,5.05
2023-04-20T00:42:40.755Z,5.18
2023-04-20T00:45:11.017Z,4.90
2023-04-20T00:47:40.045Z,4.88
2023-04-20T00:50:10.845Z,5.20
2023-04-20T00:52:39.579Z,5.03
2023-04-20T00:55:09.402Z,5.47
2023-04-20T00:57:39.853Z,5.30
2023-04-20T01:00:11.075Z,5.13
2023-04-20T01:02:39.923Z,5.50
2023-04-20T01:05:09.739Z,5.30
2023-04-20T01:07:38.200Z,5.45
2023-04-20T01:10:09.305Z,5.30
2023-04-20T01:12:39.210Z,5.88
2023-04-20T01:15:09.134Z,5.53
2023-04-20T01:17:39.821Z,5.45
2023-04-20T01:20:11.629Z,5.22
2023-04-20T01:22:47.135Z,4.97
2023-04-20T01:25:16.049Z,5.20
2023-04-20T01:27:44.852Z,5.80
2023-04-20T01:30:14.301Z,6.18
2023-04-20T01:32:42.860Z,6.28
2023-04-20T01:35:11.651Z,6.23
2023-04-20T01:37:40.960Z,5.90
2023-04-20T01:40:14.478Z,6.07
2023-04-20T01:42:42.975Z,5.57
2023-04-20T01:45:12.609Z,6.60
2023-04-20T01:47:41.144Z,5.60
2023-04-20T01:50:10.371Z,5.78
2023-04-20T01:52:38.889Z,5.78
2023-04-20T01:55:08.886Z,5.78
2023-04-20T01:57:38.748Z,6.07
2023-04-20T02:00:10.118Z,5.50
2023-04-20T02:02:38.857Z,6.50
2023-04-20T02:05:08.503Z,6.15
2023-04-20T02:07:37.068Z,6.18
2023-04-20T02:10:06.500Z,5.68
2023-04-20T02:12:35.006Z,5.60
2023-04-20T02:15:05.677Z,5.35
2023-04-20T02:17:34.193Z,5.80
2023-04-20T02:20:02.707Z,5.55
2023-04-20T02:22:34.989Z,5.97
2023-04-20T02:25:05.091Z,6.47
2023-04-20T02:27:34.198Z,5.78
2023-04-20T02:30:06.181Z,5.78
2023-04-20T02:32:35.204Z,5.60
2023-04-20T02:35:04.659Z,6.00
2023-04-20T02:37:33.544Z,6.03
2023-04-20T02:40:02.049Z,6.10
2023-04-20T02:42:30.774Z,5.97
2023-04-20T02:44:59.210Z,6.35
2023-04-20T02:47:29.329Z,6.15
2023-04-20T02:49:57.901Z,6.03
2023-04-20T02:52:26.865Z,5.93
2023-04-20T02:54:55.368Z,5.70
2023-04-20T02:57:25.646Z,6.70
2023-04-20T02:59:54.219Z,6.05
2023-04-20T03:02:23.066Z,6.00
2023-04-20T03:04:53.200Z,5.90
2023-04-20T03:07:21.752Z,6.53
2023-04-20T03:09:50.263Z,6.13
2023-04-20T03:12:19.431Z,6.68
2023-04-20T03:14:47.898Z,6.33
2023-04-20T03:17:16.729Z,6.25
2023-04-20T03:19:46.468Z,6.18
2023-04-20T03:22:19.299Z,6.53
2023-04-20T03:24:48.275Z,6.38
2023-04-20T03:27:16.726Z,6.70
2023-04-20T03:29:45.201Z,8.15
2023-04-20T03:32:13.796Z,8.23
2023-04-20T03:34:42.280Z,8.30
2023-04-20T03:37:10.721Z,8.02
2023-04-20T03:39:40.567Z,7.90
2023-04-20T03:42:09.265Z,7.25
2023-04-20T03:44:37.731Z,7.30
2023-04-20T03:47:06.407Z,8.32
2023-04-20T03:49:35.633Z,8.00
2023-04-20T03:52:04.093Z,6.77
2023-04-20T03:54:32.596Z,7.95
2023-04-20T03:57:02.667Z,7.53
2023-04-20T03:59:31.350Z,7.55
2023-04-20T04:02:00.143Z,7.65
2023-04-20T04:04:29.233Z,7.77
2023-04-20T04:06:58.250Z,7.82
2023-04-20T04:09:27.181Z,7.85
2023-04-20T04:11:55.841Z,7.40
2023-04-20T04:14:25.755Z,8.13
2023-04-20T04:16:54.467Z,7.13
2023-04-20T04:19:23.177Z,7.15
2023-04-20T04:21:51.604Z,7.60
2023-04-20T04:24:20.041Z,7.72
2023-04-20T04:26:48.769Z,7.72
2023-04-20T04:29:17.490Z,7.90
2023-04-20T04:31:47.790Z,7.10
2023-04-20T04:34:18.481Z,7.13
2023-04-20T04:36:47.882Z,7.55
2023-04-20T04:39:16.577Z,7.65
2023-04-20T04:41:45.176Z,7.17
2023-04-20T04:44:13.654Z,7.60
2023-04-20T04:46:43.371Z,7.18
2023-04-20T04:49:13.340Z,8.07
2023-04-20T04:51:41.828Z,7.20
2023-04-20T04:54:10.510Z,7.90
2023-04-20T04:56:38.963Z,8.82
2023-04-20T04:59:07.406Z,8.30
2023-04-20T05:01:35.925Z,8.20
2023-04-20T05:04:04.858Z,8.02
2023-04-20T05:06:34.855Z,7.80
2023-04-20T05:09:03.318Z,7.53
2023-04-20T05:11:32.910Z,7.88
2023-04-20T05:14:02.716Z,7.78
2023-04-20T05:16:31.230Z,8.05
2023-04-20T05:18:59.710Z,7.70
2023-04-20T05:21:28.706Z,8.00
2023-04-20T05:23:58.526Z,8.63
2023-04-20T05:26:27.042Z,8.00
2023-04-20T05:28:55.456Z,7.88
2023-04-20T05:31:23.892Z,7.53
2023-04-20T05:33:52.423Z,6.93
2023-04-20T05:36:21.190Z,7.95
2023-04-20T05:38:49.851Z,7.25
2023-04-20T05:41:19.900Z,7.80
2023-04-20T05:43:48.331Z,6.80
2023-04-20T05:46:16.812Z,7.60
2023-04-20T05:48:45.526Z,6.65
2023-04-20T05:51:14.040Z,7.03
2023-04-20T05:53:42.881Z,7.57
2023-04-20T05:56:11.571Z,7.30
2023-04-20T05:58:41.735Z,8.02
2023-04-20T06:01:10.380Z,8.18
2023-04-20T06:03:39.019Z,8.40
2023-04-20T06:06:08.555Z,8.60
2023-04-20T06:08:37.146Z,7.97
2023-04-20T06:11:05.623Z,8.35
2023-04-20T06:13:34.085Z,7.90
2023-04-20T06:16:03.972Z,6.88
2023-04-20T06:18:32.441Z,7.30
2023-04-20T06:21:01.839Z,6.90
2023-04-20T06:23:30.713Z,7.50
2023-04-20T06:25:59.156Z,7.85
2023-04-20T06:28:27.669Z,7.93
2023-04-20T06:30:56.151Z,7.95
2023-04-20T06:33:26.009Z,7.50
2023-04-20T06:35:54.728Z,6.85
2023-04-20T06:38:23.909Z,7.30
2023-04-20T06:40:52.889Z,7.97
2023-04-20T06:43:21.370Z,8.40
2023-04-20T06:45:49.837Z,6.87
2023-04-20T06:48:31.333Z,7.43
2023-04-20T06:51:02.765Z,7.45
2023-04-20T06:53:31.346Z,7.28
2023-04-20T06:56:00.155Z,7.60
2023-04-20T06:58:28.867Z,7.40
2023-04-20T07:00:57.386Z,6.85
2023-04-20T07:03:25.999Z,7.50
2023-04-20T07:05:54.530Z,7.05
2023-04-20T07:08:24.350Z,7.20
2023-04-20T07:10:53.014Z,7.10
2023-04-20T07:13:21.454Z,6.90
2023-04-20T07:15:50.128Z,7.15
2023-04-20T07:18:18.681Z,7.05
2023-04-20T07:20:47.195Z,8.68
2023-04-20T07:23:15.640Z,6.53
2023-04-20T07:25:45.802Z,7.35
2023-04-20T07:28:14.306Z,7.50
2023-04-20T07:30:42.791Z,6.97
2023-04-20T07:33:11.863Z,7.03
2023-04-20T07:35:40.602Z,7.23
2023-04-20T07:38:09.032Z,7.13
2023-04-20T07:40:37.671Z,7.50
2023-04-20T07:43:07.551Z,6.95
2023-04-20T07:45:36.786Z,7.55
2023-04-20T07:48:05.881Z,9.23
2023-04-20T07:50:34.362Z,8.32
2023-04-20T07:53:03.435Z,7.38
2023-04-20T07:55:31.950Z,8.07
2023-04-20T07:58:00.944Z,8.15
2023-04-20T08:00:31.114Z,7.27
2023-04-20T08:02:59.652Z,7.90
2023-04-20T08:05:28.492Z,8.50
2023-04-20T08:07:56.938Z,9.23
2023-04-20T08:10:25.667Z,10.57
2023-04-20T08:12:54.110Z,7.50
2023-04-20T08:15:22.665Z,7.97
2023-04-20T08:17:53.103Z,7.45
2023-04-20T08:20:21.996Z,7.45
2023-04-20T08:22:51.051Z,7.28
2023-04-20T08:25:19.892Z,7.17
2023-04-20T08:27:48.766Z,7.47
2023-04-20T08:30:17.548Z,7.15
2023-04-20T08:32:46.035Z,6.82
2023-04-20T08:35:16.233Z,7.13
2023-04-20T08:37:44.950Z,6.87
2023-04-20T08:40:14.494Z,7.05
2023-04-20T08:42:43.083Z,7.28
2023-04-20T08:45:11.773Z,7.55
2023-04-20T08:47:41.928Z,7.75
2023-04-20T08:50:11.099Z,6.80
2023-04-20T08:52:41.179Z,7.10
2023-04-20T08:55:10.236Z,7.47
2023-04-20T08:57:40.066Z,7.30
2023-04-20T09:00:13.568Z,7.00
2023-04-20T09:02:51.954Z,6.20
2023-04-20T09:05:28.360Z,6.97
2023-04-20T09:08:01.219Z,7.18
2023-04-20T09:10:42.107Z,7.20
2023-04-20T09:13:11.311Z,6.85
2023-04-20T09:15:40.031Z,7.23
2023-04-20T09:18:15.709Z,7.80
2023-04-20T09:20:44.833Z,7.50
2023-04-20T09:23:15.752Z,7.18
2023-04-20T09:25:47.390Z,7.25
2023-04-20T09:28:17.670Z,7.50
2023-04-20T09:30:47.964Z,7.50
2023-04-20T09:33:16.932Z,7.63
2023-04-20T09:35:46.492Z,7.40
2023-04-20T09:38:18.563Z,7.60
2023-04-20T09:40:47.123Z,6.90
2023-04-20T09:43:20.661Z,7.93
2023-04-20T09:45:49.368Z,8.18
2023-04-20T09:48:19.820Z,7.38
2023-04-20T09:50:51.144Z,7.53
2023-04-20T09:53:21.964Z,7.17
2023-04-20T09:55:51.963Z,7.55
2023-04-20T09:58:21.858Z,7.47
2023-04-20T10:00:51.113Z,7.30
2023-04-20T10:03:20.445Z,7.00
2023-04-20T10:05:51.116Z,7.50
2023-04-20T10:08:24.424Z,7.63
2023-04-20T10:10:53.079Z,7.70
2023-04-20T10:13:23.289Z,8.40
2023-04-20T10:15:52.002Z,7.05
2023-04-20T10:18:23.633Z,6.57
2023-04-20T10:20:54.099Z,6.60
2023-04-20T10:23:23.939Z,7.45
2023-04-20T10:26:01.093Z,9.60
2023-04-20T10:28:40.815Z,6.40
2023-04-20T10:31:13.330Z,6.90
2023-04-20T10:33:55.335Z,6.43
2023-04-20T10:36:31.399Z,6.72
2023-04-20T10:39:05.056Z,6.45
2023-04-20T10:41:33.754Z,6.47
2023-04-20T10:44:09.574Z,6.27
2023-04-20T10:46:38.392Z,6.82
2023-04-20T10:49:06.888Z,6.63
2023-04-20T10:51:36.405Z,6.90
2023-04-20T10:54:09.036Z,6.60
2023-04-20T10:56:42.095Z,6.77
2023-04-20T10:59:11.854Z,6.38
2023-04-20T11:01:41.115Z,6.35
2023-04-20T11:04:10.816Z,5.53
2023-04-20T11:06:40.714Z,6.22
2023-04-20T11:09:21.349Z,6.20
2023-04-20T11:12:02.194Z,6.03
2023-04-20T11:14:31.724Z,6.40
2023-04-20T11:17:00.405Z,6.65
2023-04-20T11:19:32.357Z,7.05
2023-04-20T11:22:01.911Z,5.50
2023-04-20T11:24:34.332Z,6.38
2023-04-20T11:27:04.963Z,6.75
2023-04-20T11:29:35.933Z,5.80
2023-04-20T11:32:07.779Z,6.43
2023-04-20T11:34:38.048Z,6.07
2023-04-20T11:37:07.561Z,5.65
2023-04-20T11:39:38.578Z,5.60
2023-04-20T11:42:07.840Z,5.32
2023-04-20T11:44:37.105Z,6.05
2023-04-20T11:47:06.242Z,5.57
2023-04-20T11:49:34.801Z,5.25
2023-04-20T11:52:03.550Z,5.28
2023-04-20T11:54:34.265Z,5.05
2023-04-20T11:57:04.685Z,4.80
2023-04-20T11:59:33.210Z,4.60
2023-04-20T12:02:04.227Z,4.70
2023-04-20T12:04:34.479Z,5.03
2023-04-20T12:07:03.551Z,4.50
2023-04-20T12:09:36.162Z,4.80
2023-04-20T12:12:07.135Z,4.40
2023-04-20T12:14:35.895Z,4.25
2023-04-20T12:17:05.855Z,4.15
2023-04-20T12:19:34.354Z,4.00
2023-04-20T12:22:02.893Z,4.40
2023-04-20T12:24:31.366Z,3.70
2023-04-20T12:27:00.007Z,3.70
2023-04-20T12:29:31.229Z,4.20
2023-04-20T12:32:00.140Z,3.38
2023-04-20T12:34:30.687Z,3.38
2023-04-20T12:36:59.551Z,3.43
2023-04-20T12:39:28.262Z,3.35
2023-04-20T12:41:57.083Z,3.20
2023-04-20T12:44:25.615Z,3.28
2023-04-20T12:46:55.802Z,3.60
2023-04-20T12:49:24.363Z,3.43
2023-04-20T12:51:52.893Z,2.92
2023-04-20T12:54:21.394Z,3.80
2023-04-20T12:56:50.085Z,3.20
2023-04-20T12:59:18.543Z,3.25
2023-04-20T13:01:47.034Z,3.20
2023-04-20T13:04:17.167Z,3.40
2023-04-20T13:06:46.052Z,6.20
2023-04-20T13:09:14.735Z,3.83
2023-04-20T13:11:43.261Z,6.60
2023-04-20T13:14:11.962Z,7.60
2023-04-20T13:16:40.443Z,3.53
2023-04-20T13:19:09.025Z,3.20
2023-04-20T13:21:38.996Z,3.15
2023-04-20T13:24:08.149Z,3.40
2023-04-20T13:26:37.081Z,3.10
2023-04-20T13:29:05.764Z,3.30
2023-04-20T13:31:36.286Z,3.13
2023-04-20T13:34:04.822Z,3.45
2023-04-20T13:36:33.349Z,3.60
2023-04-20T13:39:04.004Z,3.00
2023-04-20T13:41:32.471Z,3.63
2023-04-20T13:44:01.945Z,3.67
2023-04-20T13:46:31.078Z,3.30
2023-04-20T13:48:59.976Z,3.40
2023-04-20T13:51:28.845Z,3.27
2023-04-20T13:53:57.482Z,3.30
2023-04-20T13:56:27.602Z,3.47
2023-04-20T13:58:56.034Z,3.53
2023-04-20T14:01:25.855Z,3.83
2023-04-20T14:03:55.003Z,4.10
2023-04-20T14:06:23.993Z,3.58
2023-04-20T14:08:52.472Z,3.45
2023-04-20T14:11:21.437Z,3.15
2023-04-20T14:13:52.168Z,2.95
2023-04-20T14:16:20.900Z,2.50
2023-04-20T14:18:49.352Z,2.78
2023-04-20T14:21:17.814Z,2.83
2023-04-20T14:23:46.428Z,2.97
2023-04-20T14:26:14.891Z,3.20
2023-04-20T14:28:43.351Z,2.97
2023-04-20T14:31:13.280Z,2.72
2023-04-20T14:33:44.659Z,2.58
2023-04-20T14:36:14.169Z,3.00
2023-04-20T14:38:42.635Z,2.75
2023-04-20T14:41:11.352Z,2.87
2023-04-20T14:43:39.814Z,2.90
2023-04-20T14:46:08.613Z,3.05
2023-04-20T14:48:39.069Z,2.65
2023-04-20T14:51:10.138Z,2.80
2023-04-20T14:53:38.588Z,2.70
2023-04-20T14:56:07.526Z,2.72
2023-04-20T14:58:37.673Z,2.50
2023-04-20T15:01:07.342Z,2.35
2023-04-20T15:03:37.727Z,2.60
2023-04-20T15:06:06.978Z,2.40
2023-04-20T15:08:35.573Z,2.28
2023-04-20T15:11:05.265Z,2.40
2023-04-20T15:13:34.009Z,2.55
2023-04-20T15:16:02.492Z,2.75
2023-04-20T15:18:31.003Z,2.40
2023-04-20T15:21:00.958Z,2.60
2023-04-20T15:23:29.447Z,4.32
2023-04-20T15:25:58.167Z,2.50
2023-04-20T15:28:27.038Z,2.58
2023-04-20T15:30:55.640Z,2.03
2023-04-20T15:33:24.147Z,2.42
2023-04-20T15:35:52.847Z,2.05
2023-04-20T15:38:22.739Z,1.75
2023-04-20T15:40:51.612Z,2.13
2023-04-20T15:43:20.079Z,1.77
2023-04-20T15:45:48.572Z,1.73
2023-04-20T15:48:17.059Z,1.80
2023-04-20T15:50:46.266Z,2.13
2023-04-20T15:53:15.019Z,3.60
2023-04-20T15:55:45.031Z,3.00
2023-04-20T15:58:13.561Z,1.70
2023-04-20T16:00:42.224Z,1.85
2023-04-20T16:03:11.012Z,3.03
2023-04-20T16:05:39.650Z,3.60
2023-04-20T16:08:08.345Z,2.30
2023-04-20T16:10:37.026Z,2.65
2023-04-20T16:13:07.229Z,2.53
2023-04-20T16:15:36.031Z,2.40
2023-04-20T16:18:05.625Z,2.72
2023-04-20T16:20:34.147Z,3.03
2023-04-20T16:23:02.618Z,2.50
2023-04-20T16:25:33.368Z,3.03
2023-04-20T16:28:02.468Z,3.45
2023-04-20T16:30:33.562Z,4.38
2023-04-20T16:33:02.498Z,8.67
2023-04-20T16:35:31.211Z,3.72
2023-04-20T16:37:59.663Z,2.80
2023-04-20T16:40:28.599Z,2.88
2023-04-20T16:42:57.454Z,2.97
2023-04-20T16:45:25.892Z,2.93
2023-04-20T16:47:55.747Z,3.10
2023-04-20T16:50:24.478Z,3.78
2023-04-20T16:52:52.935Z,2.80
2023-04-20T16:55:21.675Z,2.95
2023-04-20T16:57:50.132Z,2.60
2023-04-20T17:00:19.677Z,3.78
2023-04-20T17:02:48.279Z,3.78
2023-04-20T17:05:18.284Z,3.50
2023-04-20T17:07:48.011Z,4.50
2023-04-20T17:10:17.377Z,3.57
2023-04-20T17:12:46.203Z,4.15
2023-04-20T17:15:14.700Z,4.78
2023-04-20T17:17:43.419Z,4.78
2023-04-20T17:20:12.673Z,7.13
2023-04-20T17:22:42.754Z,4.20
2023-04-20T17:25:11.576Z,6.45
2023-04-20T17:27:40.029Z,7.38
2023-04-20T17:30:10.699Z,5.57
2023-04-20T17:32:39.194Z,4.65
2023-04-20T17:35:08.632Z,37.47
2023-04-20T17:37:38.110Z,6.47
2023-04-20T17:40:10.306Z,5.40
2023-04-20T17:42:38.765Z,4.80
2023-04-20T17:45:08.850Z,5.10
2023-04-20T17:47:37.649Z,5.87
2023-04-20T17:50:07.718Z,5.70
2023-04-20T17:52:36.189Z,4.30
2023-04-20T17:55:05.088Z,3.80
2023-04-20T17:57:34.904Z,3.83
2023-04-20T18:00:05.102Z,3.80
2023-04-20T18:02:33.617Z,3.60
2023-04-20T18:05:02.367Z,3.97
2023-04-20T18:07:30.824Z,4.15
2023-04-20T18:09:59.265Z,3.75
2023-04-20T18:12:27.848Z,3.77
2023-04-20T18:14:57.687Z,3.88
2023-04-20T18:17:26.166Z,4.32
2023-04-20T18:19:54.809Z,4.00
2023-04-20T18:22:24.483Z,4.22
2023-04-20T18:24:53.047Z,4.67
2023-04-20T18:27:21.472Z,5.63
2023-04-20T18:29:50.364Z,6.80
2023-04-20T18:32:21.020Z,6.30
2023-04-20T18:34:49.620Z,4.47
2023-04-20T18:37:18.084Z,3.60
2023-04-20T18:39:46.880Z,3.15
2023-04-20T18:42:15.401Z,3.20
2023-04-20T18:44:44.029Z,3.10
2023-04-20T18:47:12.643Z,3.08
2023-04-20T18:49:42.480Z,3.37
2023-04-20T18:52:11.172Z,3.95
2023-04-20T18:54:39.702Z,3.45
2023-04-20T18:57:09.015Z,3.67
2023-04-20T18:59:37.480Z,3.20
2023-04-20T19:02:06.034Z,2.87
2023-04-20T19:04:36.344Z,3.08
2023-04-20T19:07:06.245Z,3.38
2023-04-20T19:09:34.690Z,2.90
2023-04-20T19:12:03.353Z,3.58
2023-04-20T19:14:32.052Z,3.33
2023-04-20T19:17:02.102Z,3.38
2023-04-20T19:19:30.736Z,3.67
2023-04-20T19:22:00.593Z,3.42
2023-04-20T19:24:30.579Z,3.55
2023-04-20T19:26:59.440Z,3.63
2023-04-20T19:29:27.920Z,3.60
2023-04-20T19:31:56.560Z,3.90
2023-04-20T19:34:25.321Z,3.67
2023-04-20T19:36:53.906Z,4.60
2023-04-20T19:39:22.418Z,4.27
2023-04-20T19:41:52.278Z,3.72
2023-04-20T19:44:20.930Z,4.50
2023-04-20T19:46:49.980Z,4.05
2023-04-20T19:49:18.796Z,4.25
2023-04-20T19:51:47.447Z,6.00
2023-04-20T19:54:17.609Z,4.10
2023-04-20T19:56:46.328Z,3.75
2023-04-20T19:59:16.379Z,4.25
2023-04-20T20:01:44.987Z,3.70
2023-04-20T20:04:13.720Z,3.70
2023-04-20T20:06:44.037Z,4.80
2023-04-20T20:09:12.838Z,4.90
2023-04-20T20:11:42.186Z,4.35
2023-04-20T20:14:10.698Z,4.00
2023-04-20T20:16:40.550Z,3.60
2023-04-20T20:19:11.095Z,3.90
2023-04-20T20:21:39.831Z,3.92
2023-04-20T20:24:08.820Z,4.22
2023-04-20T20:26:37.346Z,4.15
2023-04-20T20:29:06.422Z,4.37
2023-04-20T20:31:35.074Z,4.25
2023-04-20T20:34:05.906Z,4.38
2023-04-20T20:36:35.956Z,3.80
2023-04-20T20:39:05.372Z,3.20
2023-04-20T20:41:34.406Z,2.80
2023-04-20T20:44:03.067Z,3.38
2023-04-20T20:46:31.865Z,2.80
2023-04-20T20:49:01.180Z,2.60
2023-04-20T20:51:31.715Z,2.55
2023-04-20T20:54:00.369Z,2.83
2023-04-20T20:56:29.069Z,2.90
2023-04-20T20:58:57.591Z,2.80
2023-04-20T21:01:26.162Z,2.75
2023-04-20T21:03:54.905Z,2.78
2023-04-20T21:06:23.533Z,2.70
2023-04-20T21:08:53.644Z,2.90
2023-04-20T21:11:22.203Z,3.50
2023-04-20T21:13:50.711Z,3.30
2023-04-20T21:16:19.252Z,3.60
2023-04-20T21:18:47.744Z,3.80
2023-04-20T21:21:16.586Z,3.97
2023-04-20T21:23:45.041Z,4.28
2023-04-20T21:26:15.109Z,3.80
2023-04-20T21:28:43.699Z,3.10
2023-04-20T21:31:12.595Z,3.47
2023-04-20T21:33:41.015Z,3.60
2023-04-20T21:36:10.635Z,3.92
2023-04-20T21:38:39.423Z,3.67
2023-04-20T21:41:07.875Z,3.60
2023-04-20T21:43:37.712Z,3.53
2023-04-20T21:46:06.569Z,3.20
2023-04-20T21:48:35.276Z,3.30
2023-04-20T21:51:03.762Z,3.63
2023-04-20T21:53:32.685Z,3.28
2023-04-20T21:56:01.140Z,3.63
2023-04-20T21:58:29.797Z,3.72
2023-04-20T22:00:59.735Z,4.18
2023-04-20T22:03:29.460Z,3.90
2023-04-20T22:05:58.385Z,3.70
2023-04-20T22:08:26.836Z,3.93
2023-04-20T22:10:55.298Z,3.58
2023-04-20T22:13:23.784Z,3.80
2023-04-20T22:15:52.862Z,3.47
2023-04-20T22:18:22.997Z,3.92
2023-04-20T22:20:52.216Z,3.20
2023-04-20T22:23:20.908Z,3.92
2023-04-20T22:25:49.349Z,3.85
2023-04-20T22:28:17.800Z,3.53
2023-04-20T22:30:46.315Z,4.10
2023-04-20T22:33:14.777Z,3.67
2023-04-20T22:35:44.689Z,3.67
2023-04-20T22:38:13.157Z,4.45
2023-04-20T22:40:41.867Z,3.70
2023-04-20T22:43:10.333Z,4.30
2023-04-20T22:45:38.786Z,4.23
2023-04-20T22:48:07.852Z,4.10
2023-04-20T22:50:36.359Z,4.07
2023-04-20T22:53:06.250Z,4.20
2023-04-20T22:55:34.749Z,3.97
2023-04-20T22:58:03.227Z,3.97
2023-04-20T23:00:32.170Z,4.95
2023-04-20T23:03:01.184Z,3.92
2023-04-20T23:05:29.806Z,4.38
2023-04-20T23:08:00.585Z,4.43
2023-04-20T23:10:30.552Z,4.20
2023-04-20T23:12:59.002Z,4.28
2023-04-20T23:15:27.461Z,4.68
2023-04-20T23:17:57.304Z,4.38
2023-04-20T23:20:26.871Z,4.80
2023-04-20T23:22:55.636Z,4.53
2023-04-20T23:25:24.346Z,4.28
2023-04-20T23:27:54.191Z,4.55
2023-04-20T23:30:22.970Z,4.28
2023-04-20T23:32:51.473Z,4.20
2023-04-20T23:35:20.392Z,4.53
2023-04-20T23:37:48.844Z,4.80
2023-04-20T23:40:17.380Z,5.03
2023-04-20T23:42:46.110Z,4.10
2023-04-20T23:45:16.217Z,4.20
2023-04-20T23:47:44.960Z,4.23
2023-04-20T23:50:13.488Z,4.20
2023-04-20T23:52:42.176Z,4.30
2023-04-20T23:55:12.587Z,4.10
2023-04-20T23:57:41.085Z,4.80
